Map

Track Data

SID SEASON NUMBER BASIN SUBBASIN NAME ISO_TIME NATURE LAT LON WMO_WIND WMO_PRES WMO_AGENCY TRACK_TYPE DIST2LAND LANDFALL IFLAG USA_AGENCY USA_ATCF_ID USA_LAT USA_LON USA_RECORD USA_STATUS USA_WIND USA_PRES USA_SSHS USA_R34_NE USA_R34_SE USA_R34_SW USA_R34_NW USA_R50_NE USA_R50_SE USA_R50_SW USA_R50_NW USA_R64_NE USA_R64_SE USA_R64_SW USA_R64_NW USA_POCI USA_ROCI USA_RMW USA_EYE TOKYO_LAT TOKYO_LON TOKYO_GRADE TOKYO_WIND TOKYO_PRES TOKYO_R50_DIR TOKYO_R50_LONG TOKYO_R50_SHORT TOKYO_R30_DIR TOKYO_R30_LONG TOKYO_R30_SHORT TOKYO_LAND CMA_LAT CMA_LON CMA_CAT CMA_WIND CMA_PRES HKO_LAT HKO_LON HKO_CAT HKO_WIND HKO_PRES NEWDELHI_LAT NEWDELHI_LON NEWDELHI_GRADE NEWDELHI_WIND NEWDELHI_PRES NEWDELHI_CI NEWDELHI_DP NEWDELHI_POCI REUNION_LAT REUNION_LON REUNION_TYPE REUNION_WIND REUNION_PRES REUNION_TNUM REUNION_CI REUNION_RMW REUNION_R34_NE REUNION_R34_SE REUNION_R34_SW REUNION_R34_NW REUNION_R50_NE REUNION_R50_SE REUNION_R50_SW REUNION_R50_NW REUNION_R64_NE REUNION_R64_SE REUNION_R64_SW REUNION_R64_NW BOM_LAT BOM_LON BOM_TYPE BOM_WIND BOM_PRES BOM_TNUM BOM_CI BOM_RMW BOM_R34_NE BOM_R34_SE BOM_R34_SW BOM_R34_NW BOM_R50_NE BOM_R50_SE BOM_R50_SW BOM_R50_NW BOM_R64_NE BOM_R64_SE BOM_R64_SW BOM_R64_NW BOM_ROCI BOM_POCI BOM_EYE BOM_POS_METHOD BOM_PRES_METHOD NADI_LAT NADI_LON NADI_CAT NADI_WIND NADI_PRES WELLINGTON_LAT WELLINGTON_LON WELLINGTON_WIND WELLINGTON_PRES DS824_LAT DS824_LON DS824_STAGE DS824_WIND DS824_PRES TD9636_LAT TD9636_LON TD9636_STAGE TD9636_WIND TD9636_PRES TD9635_LAT TD9635_LON TD9635_WIND TD9635_PRES TD9635_ROCI NEUMANN_LAT NEUMANN_LON NEUMANN_CLASS NEUMANN_WIND NEUMANN_PRES MLC_LAT MLC_LON MLC_CLASS MLC_WIND MLC_PRES USA_GUST BOM_GUST BOM_GUST_PER REUNION_GUST REUNION_GUST_PER USA_SEAHGT USA_SEARAD_NE USA_SEARAD_SE USA_SEARAD_SW USA_SEARAD_NW STORM_SPEED STORM_DIR
1966245N20088 1966 66 NI BB NOT_NAMED 1966-09-02 06:00:00 TS 19.5000 88.4000 main 198 180 O________O____ jtwc_io IO091966 19.5000 88.4000 -1 19.5000 88.4000 TC 4 270
1966245N20088 1966 66 NI BB NOT_NAMED 1966-09-02 09:00:00 TS 19.5001 88.1975 main 180 162 P________P____ IO091966 19.5001 88.1975 -1 19.5001 88.1975 TC 4 270
1966245N20088 1966 66 NI BB NOT_NAMED 1966-09-02 12:00:00 TS 19.5000 88.0000 main 162 145 O________O____ jtwc_io IO091966 19.5000 88.0000 -1 19.5000 88.0000 TC 25 4 270
1966245N20088 1966 66 NI BB NOT_NAMED 1966-09-02 15:00:00 TS 19.5000 87.8067 main 145 129 P________PO___ IO091966 19.5000 87.8075 -1 19.5000 87.8075 TC 25 19.5000 87.8000 1 4 270
1966245N20088 1966 66 NI BB NOT_NAMED 1966-09-02 18:00:00 TS 19.4979 87.5900 main 129 115 O________OP___ jtwc_io IO091966 19.5000 87.6000 -1 19.5000 87.6000 TC 25 19.4893 87.5499 1 4 269
1966245N20088 1966 66 NI BB NOT_NAMED 1966-09-02 21:00:00 TS 19.4953 87.3418 main 109 92 P________PP___ IO091966 19.5000 87.3575 -1 19.5000 87.3575 TC 25 19.4828 87.2999 1 5 270
1966245N20088 1966 66 NI BB NOT_NAMED 1966-09-03 00:00:00 TS 19.4949 87.0833 main 92 69 O________OP___ jtwc_io IO091966 19.5000 87.1000 -1 19.5000 87.1000 TC 25 19.4848 87.0499 1 5 270
1966245N20088 1966 66 NI BB NOT_NAMED 1966-09-03 03:00:00 TS 19.4950 86.8333 main 69 59 P________PO___ IO091966 19.4925 86.8500 -1 19.4925 86.8500 TC 25 19.5000 86.8000 1 5 272
1966245N20088 1966 66 NI BB NOT_NAMED 1966-09-03 06:00:00 TS 19.5105 86.5833 main 59 49 O________OP___ jtwc_io IO091966 19.5000 86.6000 -1 19.5000 86.6000 TC 25 19.5315 86.5500 1 5 277
1966245N20088 1966 66 NI BB NOT_NAMED 1966-09-03 09:00:00 TS 19.5491 86.3333 main 49 33 P________PP___ IO091966 19.5350 86.3500 -1 19.5350 86.3500 TC 25 19.5774 86.3000 1 5 282
1966245N20088 1966 66 NI BB NOT_NAMED 1966-09-03 12:00:00 TS 19.6115 86.0833 main 33 11 O________OP___ jtwc_io IO091966 19.6000 86.1000 -1 19.6000 86.1000 TC 25 19.6346 86.0500 1 5 288
1966245N20088 1966 66 NI BB NOT_NAMED 1966-09-03 15:00:00 TS 19.7000 85.8334 main 11 0 P________PO___ IO091966 19.7000 85.8500 -1 19.7000 85.8500 TC 25 19.7000 85.8000 1 5 292
1966245N20088 1966 66 NI BB NOT_NAMED 1966-09-03 18:00:00 TS 19.7916 85.6050 main 0 0 O________OP___ jtwc_io IO091966 19.8000 85.6000 -1 19.8000 85.6000 TC 25 19.7749 85.6149 1 4 291
1966245N20088 1966 66 NI BB NOT_NAMED 1966-09-03 21:00:00 TS 19.8568 85.3882 main 0 0 P________PP___ IO091966 19.8574 85.3724 -1 19.8574 85.3724 TC 25 19.8558 85.4198 1 5 285
1966245N20088 1966 66 NI BB NOT_NAMED 1966-09-04 00:00:00 TS 19.9113 85.1216 main 0 0 O________OP___ jtwc_io IO091966 19.9000 85.1000 -1 19.9000 85.1000 TC 25 19.9339 85.1649 1 6 281
1966245N20088 1966 66 NI BB NOT_NAMED 1966-09-04 03:00:00 TS 19.9664 84.7833 main 0 0 P________PO___ IO091966 19.9496 84.7749 -1 19.9496 84.7749 TC 25 20.0000 84.8000 1 8 277
1966245N20088 1966 66 NI BB NOT_NAMED 1966-09-04 06:00:00 TS 20.0110 84.2734 main 0 0 O________OP___ jtwc_io IO091966 20.0000 84.3000 -1 20.0000 84.3000 TC 25 20.0331 84.2201 1 12 274
1966245N20088 1966 66 NI BB NOT_NAMED 1966-09-04 09:00:00 TS 20.0563 83.5558 main 0 0 P________PP___ IO091966 20.0582 83.5651 -1 20.0582 83.5651 TC 25 20.0527 83.5371 1 14 273
1966245N20088 1966 66 NI BB NOT_NAMED 1966-09-04 12:00:00 TS 20.0902 82.8119 main 0 0 O________OP___ jtwc_io IO091966 20.1000 82.8000 -1 20.1000 82.8000 TC 25 20.0706 82.8356 1 12 272
1966245N20088 1966 66 NI BB NOT_NAMED 1966-09-04 15:00:00 TS 20.0948 82.2265 main 0 0 P________PO___ IO091966 20.0921 82.2398 -1 20.0921 82.2398 TC 25 20.1000 82.2000 1 10 271
1966245N20088 1966 66 NI BB NOT_NAMED 1966-09-04 18:00:00 TS 20.1062 81.7831 main 0 0 O________OP___ jtwc_io IO091966 20.1000 81.8000 -1 20.1000 81.8000 TC 25 20.1186 81.7493 1 8 276
1966245N20088 1966 66 NI BB NOT_NAMED 1966-09-04 21:00:00 TS 20.1709 81.4146 main 0 0 P________PP___ IO091966 20.1772 81.4350 -1 20.1772 81.4350 TC 25 20.1583 81.3739 1 7 285
1966245N20088 1966 66 NI BB NOT_NAMED 1966-09-05 00:00:00 TS 20.2813 81.0788 main 0 0 O________OP___ jtwc_io IO091966 20.3000 81.1000 -1 20.3000 81.1000 TC 25 20.2439 81.0365 1 7 289
1966245N20088 1966 66 NI BB NOT_NAMED 1966-09-05 03:00:00 TS 20.4033 80.7048 main 0 0 P________PO___ IO091966 20.4050 80.7072 -1 20.4050 80.7072 TC 25 20.4000 80.7000 1 8 295
1966245N20088 1966 66 NI BB NOT_NAMED 1966-09-05 06:00:00 TS 20.6272 80.2974 main 0 0 O________OP___ jtwc_io IO091966 20.6000 80.3000 -1 20.6000 80.3000 TC 25 20.6816 80.2921 1 10 308
1966245N20088 1966 66 NI BB NOT_NAMED 1966-09-05 09:00:00 TS 20.9992 79.8883 main 0 0 P________PP___ IO091966 20.9850 79.8928 -1 20.9850 79.8928 TC 25 21.0276 79.8792 1 11 316
1966245N20088 1966 66 NI BB NOT_NAMED 1966-09-05 12:00:00 TS 21.3949 79.4921 main 0 0 O________OP___ jtwc_io IO091966 21.4000 79.5000 -1 21.4000 79.5000 TC 25 21.3848 79.4764 1 10 314
1966245N20088 1966 66 NI BB NOT_NAMED 1966-09-05 15:00:00 TS 21.6966 79.1232 main 0 0 P________PO___ IO091966 21.6949 79.1349 -1 21.6949 79.1349 TC 25 21.7000 79.1000 1 8 308
1966245N20088 1966 66 NI BB NOT_NAMED 1966-09-05 18:00:00 TS 21.8834 78.8071 main 0 0 O________OP___ jtwc_io IO091966 21.9000 78.8000 -1 21.9000 78.8000 TC 25 21.8502 78.8214 1 6 297
1966245N20088 1966 66 NI BB NOT_NAMED 1966-09-05 21:00:00 TS 21.9817 78.5258 main 0 0 P________PP___ IO091966 21.9923 78.5070 -1 21.9923 78.5070 TC 25 21.9605 78.5635 1 6 292
1966245N20088 1966 66 NI BB NOT_NAMED 1966-09-06 00:00:00 TS 22.0969 78.2247 main 0 0 O________OP___ jtwc_io IO091966 22.1000 78.2000 -1 22.1000 78.2000 TC 25 22.0906 78.2740 1 7 300
1966245N20088 1966 66 NI AS NOT_NAMED 1966-09-06 03:00:00 TS 22.3263 77.8779 main 0 0 P________PO___ IO091966 22.3395 77.8668 -1 22.3395 77.8668 TC 25 22.3000 77.9000 1 10 307
1966245N20088 1966 66 NI AS NOT_NAMED 1966-09-06 06:00:00 TS 22.7049 77.3665 main 0 0 O________OP___ jtwc_io IO091966 22.7000 77.4000 -1 22.7000 77.4000 TC 25 22.7148 77.2995 1 14 307
1966245N20088 1966 66 NI AS NOT_NAMED 1966-09-06 09:00:00 TS 23.2018 76.6354 main 0 0 P________PP___ IO091966 23.2010 76.6439 -1 23.2010 76.6439 TC 25 23.2034 76.6185 1 17 307
1966245N20088 1966 66 NI AS NOT_NAMED 1966-09-06 12:00:00 TS 23.6966 75.9175 main 0 0 O________OP___ jtwc_io IO091966 23.7000 75.9000 -1 23.7000 75.9000 TC 25 23.6899 75.9525 1 14 309
1966245N20088 1966 66 NI AS NOT_NAMED 1966-09-06 15:00:00 TS 24.0730 75.4396 main 0 0 P________PO___ IO091966 24.0595 75.4594 -1 24.0595 75.4594 TC 25 24.1000 75.4000 1 9 311
1966245N20088 1966 66 NI AS NOT_NAMED 1966-09-06 18:00:00 TS 24.2979 75.1722 main 0 0 O________OP___ jtwc_io IO091966 24.3000 75.2000 -1 24.3000 75.2000 TC 25 24.2937 75.1166 1 5 310
1966245N20088 1966 66 NI AS NOT_NAMED 1966-09-06 21:00:00 TS 24.4041 75.0082 main 0 0 P________PP___ IO091966 24.3998 75.0345 -1 24.3998 75.0345 TC 25 24.4127 74.9557 1 3 309
1966245N20088 1966 66 NI AS NOT_NAMED 1966-09-07 00:00:00 TS 24.5085 74.8807 main 0 0 O________OP___ jtwc_io IO091966 24.5000 74.9000 -1 24.5000 74.9000 TC 25 24.5254 74.8421 1 4 318
1966245N20088 1966 66 NI AS NOT_NAMED 1966-09-07 03:00:00 TS 24.7366 74.6866 main 0 0 P________PO___ IO091966 24.7549 74.6799 -1 24.7549 74.6799 TC 25 24.7000 74.7000 1 7 322
1966245N20088 1966 66 NI AS NOT_NAMED 1966-09-07 06:00:00 TS 25.0831 74.3865 main 0 0 O________OP___ jtwc_io IO091966 25.1000 74.4000 -1 25.1000 74.4000 TC 25 25.0492 74.3594 1 10 321
1966245N20088 1966 66 NI AS NOT_NAMED 1966-09-07 09:00:00 TS 25.4830 74.0238 main 0 0 P________PP___ IO091966 25.4927 74.0428 -1 25.4927 74.0428 TC 25 25.4636 73.9858 1 10 322
1966245N20088 1966 66 NI AS NOT_NAMED 1966-09-07 12:00:00 TS 25.8987 73.6813 main 0 0 O________OP___ jtwc_io IO091966 25.9000 73.7000 -1 25.9000 73.7000 TC 25 25.8961 73.6439 1 10 326
1966245N20088 1966 66 NI AS NOT_NAMED 1966-09-07 15:00:00 TS 26.2816 73.4266 main 0 0 P________PO___ IO091966 26.2724 73.4400 -1 26.2724 73.4400 TC 25 26.3000 73.4000 1 8 334
1966245N20088 1966 66 NI AS NOT_NAMED 1966-09-07 18:00:00 TS 26.5845 73.3005 main 0 0 O________OP___ jtwc_io IO091966 26.6000 73.3000 -1 26.6000 73.3000 TC 25 26.5534 73.3015 1 6 348
1966245N20088 1966 66 NI AS NOT_NAMED 1966-09-07 21:00:00 TS 26.8272 73.2977 main 0 0 P________PP___ IO091966 26.8499 73.2899 -1 26.8499 73.2899 TC 25 26.7816 73.3132 1 5 11
1966245N20088 1966 66 NI AS NOT_NAMED 1966-09-08 00:00:00 TS 27.0814 73.4061 main 0 0 O________OP___ jtwc_io IO091966 27.1000 73.4000 -1 27.1000 73.4000 TC 25 27.0441 73.4183 1 6 24
1966245N20088 1966 66 NI AS NOT_NAMED 1966-09-08 03:00:00 TS 27.3933 73.5753 main 0 0 P________PO___ IO091966 27.3900 73.5629 -1 27.3900 73.5629 TC 25 27.4000 73.6000 1 8 26
1966245N20088 1966 66 NI AS NOT_NAMED 1966-09-08 06:00:00 TS 27.8369 73.8171 main 0 0 O________OP___ jtwc_io IO091966 27.8000 73.8000 -1 27.8000 73.8000 TC 25 27.8922 73.8427 1 12 24
1966245N20088 1966 66 NI AS NOT_NAMED 1966-09-08 09:00:00 TS 28.4395 74.1062 main 0 0 P________PP___ IO091966 28.3952 74.0864 -1 28.3952 74.0864 TC 25 28.4987 74.1326 1 14 22
1966245N20088 1966 66 NI AS NOT_NAMED 1966-09-08 12:00:00 TS 29.1404 74.4282 main 0 0 O________OP___ jtwc_io IO091966 29.1000 74.4000 -1 29.1000 74.4000 TC 25 29.1808 74.4565 1 16 23
1966245N20088 1966 66 NI AS NOT_NAMED 1966-09-08 15:00:00 NR 29.9000 74.8000 main 0 __________O___ IO091966 -1 TC 29.9000 74.8000 1 17 23

About IBTrACS Database

This database is a web-friendly format of International Best Track Archive for Climate Stewardship (IBTrACS), a global best track data archive curated by NOAA dating back to 1842.

Updated: 2021-12-06